createdAt,value
2022-11-09T00:01:04.583Z,62.58
2022-11-09T00:03:32.496Z,65.03
2022-11-09T00:06:00.489Z,68.28
2022-11-09T00:08:28.459Z,69.95
2022-11-09T00:10:56.046Z,67.43
2022-11-09T00:13:23.605Z,67.68
2022-11-09T00:15:50.969Z,64.12
2022-11-09T00:18:18.530Z,63.58
2022-11-09T00:20:48.112Z,65.03
2022-11-09T00:23:16.691Z,61.83
2022-11-09T00:25:44.813Z,60.12
2022-11-09T00:28:12.108Z,67.72
2022-11-09T00:30:40.029Z,60.90
2022-11-09T00:33:08.739Z,65.18
2022-11-09T00:35:38.507Z,65.75
2022-11-09T00:38:05.858Z,64.05
2022-11-09T00:40:33.566Z,64.50
2022-11-09T00:43:00.858Z,59.17
2022-11-09T00:45:28.162Z,57.50
2022-11-09T00:47:55.878Z,58.25
2022-11-09T00:50:23.180Z,65.50
2022-11-09T00:52:50.802Z,59.20
2022-11-09T00:55:21.011Z,58.38
2022-11-09T00:57:51.987Z,56.50
2022-11-09T01:00:21.577Z,58.53
2022-11-09T01:02:51.852Z,60.20
2022-11-09T01:05:19.699Z,59.15
2022-11-09T01:07:49.401Z,59.42
2022-11-09T01:10:16.740Z,61.42
2022-11-09T01:12:44.142Z,58.90
2022-11-09T01:15:11.749Z,59.15
2022-11-09T01:17:39.091Z,54.22
2022-11-09T01:20:06.812Z,54.70
2022-11-09T01:22:35.831Z,56.88
2022-11-09T01:25:03.196Z,55.75
2022-11-09T01:27:30.562Z,51.55
2022-11-09T01:29:58.323Z,51.65
2022-11-09T01:32:25.639Z,54.25
2022-11-09T01:34:52.969Z,52.10
2022-11-09T01:37:20.535Z,49.92
2022-11-09T01:39:47.855Z,51.37
2022-11-09T01:42:15.677Z,53.20
2022-11-09T01:44:43.244Z,48.17
2022-11-09T01:47:16.883Z,50.53
2022-11-09T01:49:51.874Z,49.85
2022-11-09T01:52:31.857Z,51.47
2022-11-09T01:55:07.883Z,54.78
2022-11-09T01:57:39.928Z,50.12
2022-11-09T02:02:45.326Z,43.92
2022-11-09T02:05:16.009Z,48.53
2022-11-09T02:07:45.142Z,44.65
2022-11-09T02:10:32.811Z,50.33
2022-11-09T02:13:02.410Z,40.70
2022-11-09T02:15:39.155Z,45.30
2022-11-09T02:18:11.336Z,41.85
2022-11-09T02:21:05.695Z,43.17
2022-11-09T02:23:32.986Z,42.90
2022-11-09T02:26:05.519Z,42.70
2022-11-09T02:28:34.379Z,40.03
2022-11-09T02:31:02.543Z,39.28
2022-11-09T02:33:29.903Z,40.60
2022-11-09T02:35:57.336Z,45.83
2022-11-09T02:38:25.004Z,39.60
2022-11-09T02:40:52.928Z,36.75
2022-11-09T02:43:20.682Z,37.75
2022-11-09T02:45:48.631Z,43.40
2022-11-09T02:48:16.673Z,38.67
2022-11-09T02:50:44.088Z,40.00
2022-11-09T02:53:11.714Z,39.83
2022-11-09T02:55:39.399Z,44.22
2022-11-09T02:58:07.165Z,37.10
2022-11-09T03:00:35.386Z,39.47
2022-11-09T03:03:03.781Z,39.40
2022-11-09T03:05:31.174Z,37.53
2022-11-09T03:08:02.303Z,40.58
2022-11-09T03:10:30.238Z,36.88
2022-11-09T03:12:57.694Z,39.85
2022-11-09T03:15:25.352Z,37.22
2022-11-09T03:17:52.789Z,36.10
2022-11-09T03:20:20.561Z,37.25
2022-11-09T03:22:48.902Z,36.83
2022-11-09T03:25:16.416Z,39.67
2022-11-09T03:27:43.820Z,37.25
2022-11-09T03:30:12.395Z,37.65
2022-11-09T03:32:40.293Z,39.33
2022-11-09T03:35:08.112Z,44.22
2022-11-09T03:37:36.275Z,36.65
2022-11-09T03:40:04.179Z,38.42
2022-11-09T03:42:31.483Z,38.60
2022-11-09T03:44:59.156Z,37.72
2022-11-09T03:47:26.469Z,37.63
2022-11-09T03:49:53.766Z,38.67
2022-11-09T03:52:21.535Z,40.33
2022-11-09T03:54:48.846Z,37.70
2022-11-09T03:57:16.154Z,36.00
2022-11-09T03:59:43.715Z,35.03
2022-11-09T04:02:11.116Z,41.55
2022-11-09T04:04:38.780Z,39.15
2022-11-09T04:07:06.155Z,39.67
2022-11-09T04:09:33.474Z,38.75
2022-11-09T04:12:01.034Z,39.65
2022-11-09T04:14:28.403Z,43.53
2022-11-09T04:16:55.971Z,37.80
2022-11-09T04:19:23.801Z,36.63
2022-11-09T04:21:51.660Z,39.85
2022-11-09T04:24:18.949Z,38.35
2022-11-09T04:26:49.294Z,55.25
2022-11-09T04:29:16.578Z,38.33
2022-11-09T04:31:43.959Z,41.33
2022-11-09T04:34:11.526Z,40.55
2022-11-09T04:36:38.822Z,36.55
2022-11-09T04:39:06.143Z,38.60
2022-11-09T04:41:33.719Z,37.38
2022-11-09T04:44:01.002Z,37.45
2022-11-09T04:46:28.287Z,40.28
2022-11-09T04:48:55.875Z,38.83
2022-11-09T04:51:23.216Z,39.63
2022-11-09T04:53:50.612Z,37.15
2022-11-09T04:56:18.203Z,45.40
2022-11-09T04:58:45.720Z,51.40
2022-11-09T05:01:13.955Z,38.70
2022-11-09T05:03:42.014Z,61.67
2022-11-09T05:06:28.459Z,34.10
2022-11-09T05:08:56.332Z,37.08
2022-11-09T05:11:24.132Z,37.63
2022-11-09T05:13:51.700Z,38.22
2022-11-09T05:16:20.151Z,36.63
2022-11-09T05:18:47.479Z,44.75
2022-11-09T05:21:14.799Z,42.90
2022-11-09T05:24:01.214Z,36.25
2022-11-09T05:26:39.980Z,40.17
2022-11-09T05:29:09.893Z,49.65
2022-11-09T05:31:38.259Z,44.38
2022-11-09T05:34:06.938Z,43.20
2022-11-09T05:36:34.495Z,42.90
2022-11-09T05:39:01.864Z,41.75
2022-11-09T05:41:29.358Z,42.03
2022-11-09T05:43:56.977Z,44.05
2022-11-09T05:46:25.153Z,41.75
2022-11-09T05:48:52.470Z,40.25
2022-11-09T05:51:20.010Z,40.95
2022-11-09T05:53:47.420Z,46.75
2022-11-09T05:56:15.299Z,46.47
2022-11-09T05:58:43.217Z,37.25
2022-11-09T06:01:15.988Z,39.05
2022-11-09T06:03:44.249Z,39.05
2022-11-09T06:06:15.829Z,44.92
2022-11-09T06:08:43.186Z,44.63
2022-11-09T06:11:13.069Z,43.47
2022-11-09T06:13:42.019Z,41.55
2022-11-09T06:16:09.697Z,36.80
2022-11-09T06:18:37.391Z,39.83
2022-11-09T06:21:05.982Z,38.38
2022-11-09T06:23:34.291Z,35.55
2022-11-09T06:26:06.292Z,37.72
2022-11-09T06:28:34.642Z,37.83
2022-11-09T06:31:04.132Z,34.33
2022-11-09T06:33:32.419Z,39.10
2022-11-09T06:35:59.839Z,33.65
2022-11-09T06:38:27.554Z,36.83
2022-11-09T06:40:56.264Z,37.97
2022-11-09T06:43:24.148Z,34.88
2022-11-09T06:45:51.809Z,31.45
2022-11-09T06:48:19.353Z,36.85
2022-11-09T06:50:46.856Z,37.08
2022-11-09T06:53:15.742Z,36.40
2022-11-09T06:55:47.380Z,34.60
2022-11-09T06:58:19.430Z,39.40
2022-11-09T07:00:47.072Z,35.13
2022-11-09T07:03:15.777Z,34.35
2022-11-09T07:05:43.485Z,35.83
2022-11-09T07:08:11.525Z,34.38
2022-11-09T07:10:39.059Z,35.67
2022-11-09T07:13:07.309Z,37.33
2022-11-09T07:15:35.424Z,31.70
2022-11-09T07:18:05.181Z,31.73
2022-11-09T07:20:33.091Z,31.85
2022-11-09T07:23:00.410Z,33.03
2022-11-09T07:25:27.746Z,33.15
2022-11-09T07:27:55.422Z,35.28
2022-11-09T07:30:22.727Z,34.80
2022-11-09T07:35:38.564Z,35.80
2022-11-09T07:38:06.180Z,31.33
2022-11-09T07:40:34.017Z,34.30
2022-11-09T07:43:02.451Z,32.42
2022-11-09T07:45:30.767Z,33.53
2022-11-09T07:48:00.733Z,34.30
2022-11-09T07:50:29.452Z,34.40
2022-11-09T07:52:57.643Z,34.47
2022-11-09T07:55:25.851Z,37.72
2022-11-09T07:57:57.689Z,42.50
2022-11-09T08:00:26.076Z,36.72
2022-11-09T08:02:53.698Z,34.80
2022-11-09T08:05:21.055Z,34.00
2022-11-09T08:07:48.359Z,37.40
2022-11-09T08:10:16.309Z,33.70
2022-11-09T08:12:43.657Z,38.15
2022-11-09T08:15:11.325Z,32.83
2022-11-09T08:17:38.892Z,33.05
2022-11-09T08:20:06.706Z,40.80
2022-11-09T08:22:41.144Z,34.63
2022-11-09T08:25:09.114Z,42.58
2022-11-09T08:27:40.294Z,39.75
2022-11-09T08:30:12.896Z,37.15
2022-11-09T08:32:41.587Z,39.35
2022-11-09T08:35:14.314Z,38.30
2022-11-09T08:37:41.895Z,37.45
2022-11-09T08:40:09.888Z,42.15
2022-11-09T08:42:37.192Z,39.65
2022-11-09T08:45:05.734Z,40.55
2022-11-09T08:47:33.126Z,39.03
2022-11-09T08:50:01.237Z,40.92
2022-11-09T08:52:28.795Z,42.00
2022-11-09T08:54:56.202Z,42.47
2022-11-09T08:57:23.567Z,44.38
2022-11-09T08:59:51.139Z,45.83
2022-11-09T09:02:18.623Z,46.35
2022-11-09T09:04:45.971Z,39.67
2022-11-09T09:07:13.664Z,41.58
2022-11-09T09:09:41.053Z,43.28
2022-11-09T09:12:09.485Z,38.95
2022-11-09T09:14:37.183Z,40.58
2022-11-09T09:17:04.582Z,41.55
2022-11-09T09:19:32.016Z,49.92
2022-11-09T09:22:01.279Z,46.17
2022-11-09T09:24:28.792Z,46.97
2022-11-09T09:26:56.096Z,48.55
2022-11-09T09:29:23.691Z,45.80
2022-11-09T09:31:51.079Z,43.08
2022-11-09T09:34:18.482Z,53.42
2022-11-09T09:36:48.207Z,50.45
2022-11-09T09:39:15.952Z,46.35
2022-11-09T09:41:51.522Z,50.60
2022-11-09T09:44:29.102Z,52.38
2022-11-09T09:47:07.816Z,48.90
2022-11-09T09:49:38.396Z,48.85
2022-11-09T09:52:26.023Z,51.53
2022-11-09T09:55:08.333Z,55.22
2022-11-09T09:57:41.655Z,52.60
2022-11-09T10:00:19.179Z,48.63
2022-11-09T10:02:46.866Z,49.55
2022-11-09T10:05:16.296Z,46.83
2022-11-09T10:08:09.321Z,53.70
2022-11-09T10:10:39.854Z,46.83
2022-11-09T10:13:26.856Z,56.33
2022-11-09T10:16:15.289Z,55.65
2022-11-09T10:19:00.953Z,53.83
2022-11-09T10:22:08.165Z,58.47
2022-11-09T10:25:16.826Z,57.22
2022-11-09T10:27:43.583Z,56.00
2022-11-09T10:30:16.409Z,51.67
2022-11-09T10:32:47.045Z,54.88
2022-11-09T10:35:19.745Z,53.78
2022-11-09T10:37:50.136Z,54.67
2022-11-09T10:40:22.811Z,53.53
2022-11-09T10:43:13.825Z,53.00
2022-11-09T10:46:08.082Z,55.88
2022-11-09T10:48:55.606Z,54.72
2022-11-09T10:51:43.480Z,59.70
2022-11-09T10:54:34.670Z,56.47
2022-11-09T10:57:24.603Z,60.50
2022-11-09T11:00:19.202Z,59.17
2022-11-09T11:03:33.101Z,62.92
2022-11-09T11:06:27.157Z,61.97
2022-11-09T11:09:19.079Z,60.95
2022-11-09T11:12:15.414Z,61.15
2022-11-09T11:15:01.209Z,58.55
2022-11-09T11:17:46.986Z,61.33
2022-11-09T11:20:35.339Z,65.80
2022-11-09T11:23:23.595Z,59.30
2022-11-09T11:26:30.465Z,63.33
2022-11-09T11:29:19.237Z,68.55
2022-11-09T11:32:10.014Z,65.18
2022-11-09T11:35:00.704Z,65.30
2022-11-09T11:38:07.276Z,60.58
2022-11-09T11:41:05.223Z,66.53
2022-11-09T11:44:02.760Z,59.25
2022-11-09T11:47:01.030Z,66.32
2022-11-09T11:50:23.872Z,64.70
2022-11-09T11:53:48.219Z,64.15
2022-11-09T11:57:07.414Z,64.10
2022-11-09T12:00:01.929Z,67.47
2022-11-09T12:03:03.056Z,63.47
2022-11-09T12:05:54.778Z,70.55
2022-11-09T12:08:59.514Z,66.03
2022-11-09T12:12:06.895Z,79.15
2022-11-09T12:14:58.481Z,72.15
2022-11-09T12:17:52.323Z,73.15
2022-11-09T12:20:59.891Z,76.85
2022-11-09T12:24:00.391Z,74.78
2022-11-09T12:27:17.840Z,77.28
2022-11-09T12:30:14.051Z,84.82
2022-11-09T12:33:07.030Z,68.47
2022-11-09T12:36:12.599Z,66.22
2022-11-09T12:38:58.480Z,70.43
2022-11-09T12:41:45.337Z,72.82
2022-11-09T12:44:40.137Z,70.97
2022-11-09T12:47:34.551Z,71.53
2022-11-09T12:50:21.972Z,79.03
2022-11-09T12:53:08.315Z,71.45
2022-11-09T12:56:00.126Z,77.43
2022-11-09T12:58:46.198Z,77.55
2022-11-09T13:01:35.102Z,71.45
2022-11-09T13:04:22.545Z,68.12
2022-11-09T13:07:16.637Z,74.53
2022-11-09T13:10:03.404Z,69.20
2022-11-09T13:12:49.507Z,71.62
2022-11-09T13:15:35.456Z,66.97
2022-11-09T13:18:47.535Z,68.32
2022-11-09T13:21:35.414Z,68.43
2022-11-09T13:24:30.608Z,70.70
2022-11-09T13:27:47.128Z,68.50
2022-11-09T13:30:35.468Z,66.50
2022-11-09T13:33:31.721Z,65.05
2022-11-09T13:36:19.290Z,71.53
2022-11-09T13:39:28.641Z,72.87
2022-11-09T13:42:35.822Z,65.65
2022-11-09T13:45:32.364Z,66.10
2022-11-09T13:48:33.347Z,68.62
2022-11-09T13:51:32.926Z,64.07
2022-11-09T13:54:35.481Z,70.28
2022-11-09T13:57:22.920Z,69.10
2022-11-09T14:00:23.417Z,69.90
2022-11-09T14:03:24.870Z,69.62
2022-11-09T14:06:11.705Z,64.80
2022-11-09T14:08:58.043Z,72.15
2022-11-09T14:11:57.193Z,69.70
2022-11-09T14:14:55.569Z,77.78
2022-11-09T14:18:12.469Z,75.82
2022-11-09T14:21:17.715Z,69.75
2022-11-09T14:24:24.837Z,73.70
2022-11-09T14:27:10.581Z,69.80
2022-11-09T14:30:00.907Z,71.53
2022-11-09T14:32:51.498Z,78.72
2022-11-09T14:35:39.155Z,68.25
2022-11-09T14:38:25.332Z,73.50
2022-11-09T14:41:23.139Z,71.32
2022-11-09T14:44:16.288Z,73.60
2022-11-09T14:47:02.491Z,76.12
2022-11-09T14:49:48.930Z,80.80
2022-11-09T14:52:34.957Z,83.85
2022-11-09T14:55:22.830Z,77.80
2022-11-09T14:58:13.190Z,85.47
2022-11-09T15:01:16.522Z,86.05
2022-11-09T15:04:21.028Z,79.45
2022-11-09T15:07:08.116Z,76.10
2022-11-09T15:09:59.454Z,82.62
2022-11-09T15:12:54.965Z,78.70
2022-11-09T15:15:41.359Z,76.90
2022-11-09T15:18:34.332Z,86.00
2022-11-09T15:21:32.325Z,80.75
2022-11-09T15:24:19.257Z,86.05
2022-11-09T15:27:34.804Z,81.32
2022-11-09T15:30:48.580Z,78.05
2022-11-09T15:33:46.395Z,84.05
2022-11-09T15:36:35.658Z,84.05
2022-11-09T15:39:23.179Z,80.97
2022-11-09T15:42:12.878Z,83.65
2022-11-09T15:44:59.842Z,78.70
2022-11-09T15:47:54.521Z,80.78
2022-11-09T15:50:40.953Z,89.03
2022-11-09T15:53:27.854Z,82.28
2022-11-09T15:56:23.458Z,86.75
2022-11-09T15:59:19.775Z,79.65
2022-11-09T16:02:06.443Z,82.93
2022-11-09T16:04:52.394Z,80.82
2022-11-09T16:07:38.651Z,90.55
2022-11-09T16:10:27.762Z,80.18
2022-11-09T16:13:14.283Z,85.00
2022-11-09T16:16:05.058Z,81.40
2022-11-09T16:18:50.796Z,84.95
2022-11-09T16:21:36.501Z,91.22
2022-11-09T16:24:22.144Z,93.55
2022-11-09T16:27:16.945Z,90.50
2022-11-09T16:30:09.432Z,94.37
2022-11-09T16:32:55.606Z,96.65
2022-11-09T16:35:41.607Z,90.25
2022-11-09T16:38:31.426Z,90.25
2022-11-09T16:41:17.979Z,87.00
2022-11-09T16:44:04.069Z,88.45
2022-11-09T16:46:50.054Z,87.12
2022-11-09T16:49:35.776Z,96.37
2022-11-09T16:52:22.010Z,99.55
2022-11-09T16:55:09.373Z,87.18
2022-11-09T16:57:55.350Z,81.97
2022-11-09T17:01:09.721Z,86.25
2022-11-09T17:03:54.503Z,81.18
2022-11-09T17:06:40.329Z,85.28
2022-11-09T17:09:25.987Z,79.00
2022-11-09T17:12:11.890Z,84.97
2022-11-09T17:14:57.691Z,82.60
2022-11-09T17:17:43.711Z,85.53
2022-11-09T17:20:29.651Z,85.35
2022-11-09T17:23:18.775Z,80.25
2022-11-09T17:26:05.586Z,77.12
2022-11-09T17:28:51.427Z,85.55
2022-11-09T17:31:38.135Z,83.62
2022-11-09T17:34:24.091Z,84.50
2022-11-09T17:37:09.813Z,83.10
2022-11-09T17:39:55.582Z,85.50
2022-11-09T17:42:41.654Z,99.97
2022-11-09T17:45:27.480Z,96.80
2022-11-09T17:48:13.077Z,101.95
2022-11-09T17:50:59.276Z,93.43
2022-11-09T17:53:45.188Z,98.80
2022-11-09T17:56:32.059Z,93.32
2022-11-09T17:59:18.232Z,91.95
2022-11-09T18:02:03.670Z,99.45
2022-11-09T18:04:49.481Z,93.85
2022-11-09T18:07:35.222Z,91.82
2022-11-09T18:10:20.764Z,92.37
2022-11-09T18:13:06.646Z,98.05
2022-11-09T18:15:52.776Z,95.82
2022-11-09T18:18:38.722Z,102.30
2022-11-09T18:21:25.416Z,90.87
2022-11-09T18:24:11.346Z,97.85
2022-11-09T18:26:57.251Z,94.30
2022-11-09T18:29:43.170Z,91.15
2022-11-09T18:32:28.895Z,93.53
2022-11-09T18:35:14.814Z,96.95
2022-11-09T18:38:00.631Z,92.68
2022-11-09T18:40:56.879Z,99.93
2022-11-09T18:43:42.629Z,88.87
2022-11-09T18:46:30.765Z,96.75
2022-11-09T18:49:17.907Z,87.60
2022-11-09T18:52:03.950Z,82.28
2022-11-09T18:54:49.897Z,92.00
2022-11-09T18:57:35.674Z,93.20
2022-11-09T19:00:21.530Z,86.50
2022-11-09T19:03:11.574Z,90.03
2022-11-09T19:05:57.511Z,88.28
2022-11-09T19:09:02.354Z,87.88
2022-11-09T19:11:48.327Z,84.25
2022-11-09T19:14:40.907Z,95.00
2022-11-09T19:17:27.110Z,93.10
2022-11-09T19:20:12.840Z,86.15
2022-11-09T19:22:58.508Z,91.53
2022-11-09T19:25:44.609Z,90.87
2022-11-09T19:28:30.331Z,86.85
2022-11-09T19:31:17.774Z,90.72
2022-11-09T19:34:04.231Z,93.45
2022-11-09T19:36:50.198Z,91.87
2022-11-09T19:39:39.148Z,89.10
2022-11-09T19:42:27.960Z,87.60
2022-11-09T19:45:13.793Z,82.18
2022-11-09T19:48:01.107Z,92.55
2022-11-09T19:50:51.800Z,92.32
2022-11-09T19:53:42.188Z,91.15
2022-11-09T19:56:30.883Z,85.12
2022-11-09T19:59:17.079Z,80.07
2022-11-09T20:02:03.095Z,94.05
2022-11-09T20:04:50.695Z,92.37
2022-11-09T20:07:36.453Z,87.47
2022-11-09T20:10:22.256Z,85.68
2022-11-09T20:13:08.041Z,81.18
2022-11-09T20:15:53.954Z,83.00
2022-11-09T20:18:40.039Z,76.37
2022-11-09T20:21:26.093Z,79.15
2022-11-09T20:24:12.376Z,81.07
2022-11-09T20:26:58.292Z,80.32
2022-11-09T20:29:43.979Z,84.00
2022-11-09T20:32:29.662Z,80.35
2022-11-09T20:35:15.698Z,84.80
2022-11-09T20:38:01.692Z,75.47
2022-11-09T20:40:58.022Z,82.53
2022-11-09T20:43:43.627Z,78.50
2022-11-09T20:46:34.501Z,80.82
2022-11-09T20:49:22.449Z,85.38
2022-11-09T20:52:08.158Z,74.10
2022-11-09T20:54:54.123Z,80.70
2022-11-09T20:57:40.178Z,76.50
2022-11-09T21:00:25.933Z,79.18
2022-11-09T21:03:11.623Z,83.25
2022-11-09T21:05:59.508Z,81.03
2022-11-09T21:08:46.755Z,79.95
2022-11-09T21:11:35.024Z,78.00
2022-11-09T21:14:20.718Z,77.97
2022-11-09T21:17:06.429Z,72.45
2022-11-09T21:19:52.293Z,77.47
2022-11-09T21:22:56.552Z,74.45
2022-11-09T21:26:02.516Z,78.05
2022-11-09T21:29:06.817Z,77.25
2022-11-09T21:31:52.694Z,77.93
2022-11-09T21:34:39.129Z,76.22
2022-11-09T21:37:25.079Z,80.32
2022-11-09T21:40:11.078Z,81.95
2022-11-09T21:42:57.063Z,78.90
2022-11-09T21:45:42.650Z,78.50
2022-11-09T21:48:28.414Z,80.68
2022-11-09T21:51:14.326Z,78.07
2022-11-09T21:54:00.212Z,76.53
2022-11-09T21:56:49.733Z,79.72
2022-11-09T21:59:35.596Z,94.03
2022-11-09T22:02:21.181Z,84.50
2022-11-09T22:05:07.422Z,83.70
2022-11-09T22:07:53.520Z,74.45
2022-11-09T22:10:39.225Z,79.22
2022-11-09T22:13:43.409Z,80.20
2022-11-09T22:16:33.698Z,79.93
2022-11-09T22:19:38.110Z,86.63
2022-11-09T22:22:24.406Z,78.57
2022-11-09T22:25:10.095Z,85.93
2022-11-09T22:27:55.966Z,82.90
2022-11-09T22:30:41.703Z,88.53
2022-11-09T22:33:29.397Z,86.70
2022-11-09T22:36:16.398Z,92.95
2022-11-09T22:39:02.414Z,94.15
2022-11-09T22:41:48.291Z,92.93
2022-11-09T22:44:33.962Z,83.43
2022-11-09T22:47:19.983Z,92.55
2022-11-09T22:50:06.456Z,90.05
2022-11-09T22:52:59.515Z,87.50
2022-11-09T22:55:55.998Z,88.32
2022-11-09T22:58:41.740Z,88.30
2022-11-09T23:01:27.382Z,86.40
2022-11-09T23:04:13.663Z,95.87
2022-11-09T23:06:59.414Z,91.18
2022-11-09T23:09:45.157Z,90.22
2022-11-09T23:12:33.158Z,86.97
2022-11-09T23:15:18.763Z,91.47
2022-11-09T23:18:22.731Z,88.47
2022-11-09T23:21:09.009Z,92.45
2022-11-09T23:23:57.103Z,95.47
2022-11-09T23:26:42.872Z,100.18
2022-11-09T23:29:28.785Z,89.60
2022-11-09T23:32:14.400Z,95.55
2022-11-09T23:35:00.136Z,92.28
2022-11-09T23:37:45.806Z,96.78
2022-11-09T23:40:33.741Z,92.30
2022-11-09T23:43:20.349Z,97.12
2022-11-09T23:46:09.961Z,94.87
2022-11-09T23:48:55.837Z,99.70
2022-11-09T23:51:41.797Z,99.87
2022-11-09T23:54:27.705Z,104.72
2022-11-09T23:57:13.714Z,97.32
2022-11-09T23:59:59.758Z,93.85
